createdAt,value
2019-01-16T00:00:07.334Z,62.60
2019-01-16T00:02:53.320Z,62.50
2019-01-16T00:05:43.782Z,62.60
2019-01-16T00:08:40.289Z,63.20
2019-01-16T00:11:26.025Z,63.50
2019-01-16T00:14:12.119Z,63.70
2019-01-16T00:17:08.701Z,63.90
2019-01-16T00:19:54.732Z,63.90
2019-01-16T00:22:45.538Z,63.90
2019-01-16T00:25:33.989Z,63.90
2019-01-16T00:28:21.424Z,64.10
2019-01-16T00:31:07.493Z,64.50
2019-01-16T00:34:00.716Z,64.70
2019-01-16T00:37:06.015Z,64.70
2019-01-16T00:40:11.269Z,64.50
2019-01-16T00:42:52.937Z,64.50
2019-01-16T00:45:40.364Z,64.50
2019-01-16T00:48:27.304Z,64.50
2019-01-16T00:51:20.484Z,64.70
2019-01-16T00:54:07.678Z,64.80
2019-01-16T00:56:49.037Z,65.20
2019-01-16T00:59:42.870Z,65.60
2019-01-16T01:02:35.933Z,65.60
2019-01-16T01:05:36.384Z,65.20
2019-01-16T01:08:27.308Z,65.90
2019-01-16T01:11:20.482Z,65.50
2019-01-16T01:14:13.649Z,65.90
2019-01-16T01:16:55.189Z,66.00
2019-01-16T01:19:45.169Z,66.10
2019-01-16T01:22:30.645Z,66.20
2019-01-16T01:25:24.191Z,66.40
2019-01-16T01:28:14.240Z,66.80
2019-01-16T01:31:10.517Z,66.50
2019-01-16T01:34:06.659Z,66.60
2019-01-16T01:36:59.825Z,66.70
2019-01-16T01:39:47.299Z,66.60
2019-01-16T01:42:40.337Z,66.40
2019-01-16T01:45:19.358Z,66.40
2019-01-16T01:48:04.990Z,66.50
2019-01-16T01:50:51.563Z,66.50
2019-01-16T01:53:34.853Z,66.80
2019-01-16T01:56:27.384Z,66.80
2019-01-16T01:59:14.144Z,66.90
2019-01-16T02:02:04.182Z,67.10
2019-01-16T02:05:06.669Z,67.00
2019-01-16T02:07:54.791Z,67.30
2019-01-16T02:10:42.381Z,67.60
2019-01-16T02:13:29.950Z,67.80
2019-01-16T02:16:32.133Z,67.60
2019-01-16T02:19:17.834Z,67.80
2019-01-16T02:22:10.834Z,68.00
2019-01-16T02:25:00.977Z,68.20
2019-01-16T02:27:48.298Z,68.10
2019-01-16T02:30:53.678Z,68.10
2019-01-16T02:33:33.402Z,68.20
2019-01-16T02:36:20.835Z,68.20
2019-01-16T02:39:09.899Z,68.10
2019-01-16T02:41:49.685Z,68.40
2019-01-16T02:44:37.184Z,68.90
2019-01-16T02:47:24.999Z,69.10
2019-01-16T02:50:15.202Z,69.30
2019-01-16T02:53:07.013Z,69.60
2019-01-16T02:55:46.325Z,69.60
2019-01-16T02:58:42.297Z,69.70
2019-01-16T03:01:28.150Z,70.00
2019-01-16T03:04:30.430Z,70.40
2019-01-16T03:07:32.564Z,70.80
2019-01-16T03:10:20.400Z,70.60
2019-01-16T03:13:09.812Z,70.60
2019-01-16T03:15:48.403Z,71.00
2019-01-16T03:18:35.317Z,71.10
2019-01-16T03:21:38.151Z,71.10
2019-01-16T03:24:28.283Z,72.00
2019-01-16T03:27:24.058Z,71.70
2019-01-16T03:30:20.305Z,71.90
2019-01-16T03:33:03.453Z,72.10
2019-01-16T03:35:49.098Z,71.90
2019-01-16T03:38:34.983Z,71.90
2019-01-16T03:41:12.554Z,72.00
2019-01-16T03:44:08.786Z,72.30
2019-01-16T03:46:46.351Z,72.30
2019-01-16T03:49:33.129Z,72.30
2019-01-16T03:52:18.577Z,71.90
2019-01-16T03:55:05.982Z,72.40
2019-01-16T03:57:52.001Z,72.60
2019-01-16T04:00:42.603Z,72.20
2019-01-16T04:03:28.655Z,72.70
2019-01-16T04:06:34.210Z,73.40
2019-01-16T04:09:19.966Z,73.80
2019-01-16T04:12:22.491Z,74.00
2019-01-16T04:15:18.690Z,74.60
2019-01-16T04:18:13.254Z,74.70
2019-01-16T04:20:54.737Z,74.90
2019-01-16T04:23:42.452Z,75.30
2019-01-16T04:26:28.452Z,75.40
2019-01-16T04:29:27.801Z,75.50
2019-01-16T04:32:15.229Z,75.40
2019-01-16T04:35:06.556Z,75.40
2019-01-16T04:37:44.653Z,75.50
2019-01-16T04:40:32.607Z,75.60
2019-01-16T04:43:17.230Z,75.50
2019-01-16T04:46:10.469Z,75.70
2019-01-16T04:49:03.607Z,76.00
2019-01-16T04:51:41.843Z,75.90
2019-01-16T04:54:35.026Z,76.30
2019-01-16T04:57:34.617Z,76.60
2019-01-16T05:00:31.306Z,76.20
2019-01-16T05:03:30.538Z,76.10
2019-01-16T05:06:17.762Z,75.50
2019-01-16T05:09:03.033Z,75.20
2019-01-16T05:11:41.075Z,75.60
2019-01-16T05:14:26.662Z,75.50
2019-01-16T05:17:12.343Z,75.50
2019-01-16T05:19:57.962Z,75.90
2019-01-16T05:22:43.757Z,76.20
2019-01-16T05:25:30.589Z,76.60
2019-01-16T05:28:23.760Z,77.10
2019-01-16T05:31:10.439Z,77.40
2019-01-16T05:33:58.194Z,77.90
2019-01-16T05:36:43.865Z,78.40
2019-01-16T05:39:42.948Z,78.80
2019-01-16T05:42:35.366Z,78.40
2019-01-16T05:45:38.544Z,77.60
2019-01-16T05:48:34.721Z,78.30
2019-01-16T05:51:40.543Z,78.80
2019-01-16T05:54:23.962Z,78.30
2019-01-16T05:57:11.944Z,78.40
2019-01-16T05:59:53.665Z,78.60
2019-01-16T06:02:54.304Z,79.30
2019-01-16T06:05:47.770Z,79.20
2019-01-16T06:08:44.008Z,79.00
2019-01-16T06:11:30.991Z,79.20
2019-01-16T06:14:18.833Z,79.30
2019-01-16T06:16:57.941Z,78.50
2019-01-16T06:19:43.401Z,77.60
2019-01-16T06:22:39.570Z,77.80
2019-01-16T06:25:23.661Z,78.50
2019-01-16T06:28:09.539Z,78.70
2019-01-16T06:30:49.943Z,78.50
2019-01-16T06:33:35.755Z,78.60
2019-01-16T06:36:26.293Z,79.40
2019-01-16T06:39:06.129Z,79.70
2019-01-16T06:42:11.491Z,79.80
2019-01-16T06:45:13.983Z,79.80
2019-01-16T06:47:59.712Z,79.70
2019-01-16T06:50:53.020Z,79.70
2019-01-16T06:53:40.773Z,79.20
2019-01-16T06:56:26.313Z,79.30
2019-01-16T06:59:19.378Z,79.70
2019-01-16T07:02:21.398Z,80.20
2019-01-16T07:05:07.229Z,80.70
2019-01-16T07:07:50.441Z,80.80
2019-01-16T07:10:43.745Z,81.00
2019-01-16T07:13:29.432Z,81.00
2019-01-16T07:16:10.818Z,81.00
2019-01-16T07:18:56.443Z,80.90
2019-01-16T07:21:49.806Z,81.40
2019-01-16T07:24:38.323Z,81.80
2019-01-16T07:27:28.331Z,82.30
2019-01-16T07:30:27.506Z,82.70
2019-01-16T07:33:23.906Z,83.00
2019-01-16T07:36:29.248Z,83.30
2019-01-16T07:39:15.940Z,83.70
2019-01-16T07:42:10.469Z,84.00
2019-01-16T07:45:06.740Z,84.30
2019-01-16T07:48:12.562Z,84.60
2019-01-16T07:50:55.147Z,84.80
2019-01-16T07:54:09.871Z,85.10
2019-01-16T07:57:01.446Z,85.30
2019-01-16T08:00:00.953Z,85.50
2019-01-16T08:02:53.031Z,85.50
2019-01-16T08:05:49.129Z,86.10
2019-01-16T08:08:42.349Z,86.50
2019-01-16T08:11:28.670Z,86.20
2019-01-16T08:14:23.236Z,83.60
2019-01-16T08:17:10.548Z,82.70
2019-01-16T08:19:56.293Z,83.00
2019-01-16T08:23:01.909Z,83.40
2019-01-16T08:25:49.272Z,82.90
2019-01-16T08:28:45.837Z,83.30
2019-01-16T08:31:39.157Z,83.00
2019-01-16T08:34:24.876Z,82.90
2019-01-16T08:37:17.897Z,82.30
2019-01-16T08:39:58.399Z,81.50
2019-01-16T08:42:51.975Z,81.00
2019-01-16T08:45:45.330Z,80.00
2019-01-16T08:48:30.977Z,79.20
2019-01-16T08:51:16.464Z,78.00
2019-01-16T08:54:18.689Z,77.10
2019-01-16T08:57:06.185Z,77.30
2019-01-16T08:59:53.552Z,77.50
2019-01-16T09:02:55.788Z,77.00
2019-01-16T09:05:45.719Z,75.00
2019-01-16T09:08:31.686Z,74.70
2019-01-16T09:11:24.743Z,75.10
2019-01-16T09:14:08.190Z,75.00
2019-01-16T09:16:55.553Z,75.20
2019-01-16T09:19:29.582Z,75.20
2019-01-16T09:22:15.277Z,74.30
2019-01-16T09:25:05.300Z,76.00
2019-01-16T09:28:01.549Z,73.30
2019-01-16T09:30:48.880Z,70.60
2019-01-16T09:33:54.513Z,71.80
2019-01-16T09:36:41.818Z,71.10
2019-01-16T09:39:32.261Z,69.80
2019-01-16T09:42:28.412Z,68.70
2019-01-16T09:45:24.858Z,68.70
2019-01-16T09:48:30.407Z,67.70
2019-01-16T09:51:17.700Z,68.00
2019-01-16T09:54:05.059Z,68.00
2019-01-16T09:56:52.404Z,66.90
2019-01-16T09:59:42.508Z,67.00
2019-01-16T10:02:30.104Z,66.80
2019-01-16T10:05:17.425Z,66.20
2019-01-16T10:08:02.456Z,65.70
2019-01-16T10:10:52.573Z,64.40
2019-01-16T10:13:36.424Z,65.50
2019-01-16T10:16:33.213Z,65.00
2019-01-16T10:19:18.662Z,64.50
2019-01-16T10:22:05.943Z,64.80
2019-01-16T10:24:51.613Z,63.70
2019-01-16T10:27:39.112Z,64.20
2019-01-16T10:30:42.478Z,61.00
2019-01-16T10:33:35.878Z,58.90
2019-01-16T10:36:22.345Z,59.10
2019-01-16T10:39:08.296Z,60.20
2019-01-16T10:42:10.486Z,59.20
2019-01-16T10:45:09.759Z,59.10
2019-01-16T10:47:46.075Z,58.30
2019-01-16T10:50:32.095Z,58.50
2019-01-16T10:53:17.837Z,58.20
2019-01-16T10:56:03.633Z,58.60
2019-01-16T10:59:05.729Z,58.70
2019-01-16T11:01:51.650Z,58.50
2019-01-16T11:04:42.260Z,59.00
2019-01-16T11:07:41.770Z,58.30
2019-01-16T11:10:33.597Z,59.50
2019-01-16T11:13:24.373Z,59.70
2019-01-16T11:16:10.089Z,59.80
2019-01-16T11:18:56.046Z,59.20
2019-01-16T11:21:43.126Z,59.10
2019-01-16T11:24:45.304Z,59.60
2019-01-16T11:27:47.910Z,57.90
2019-01-16T11:30:35.200Z,58.10
2019-01-16T11:33:21.009Z,57.20
2019-01-16T11:36:17.413Z,57.20
2019-01-16T11:39:16.626Z,56.90
2019-01-16T11:42:02.610Z,57.60
2019-01-16T11:44:49.992Z,56.40
2019-01-16T11:47:43.424Z,56.70
2019-01-16T11:50:46.040Z,56.70
2019-01-16T11:53:31.707Z,57.40
2019-01-16T11:56:17.972Z,57.60
2019-01-16T11:59:14.150Z,56.90
2019-01-16T12:02:08.364Z,57.20
2019-01-16T12:04:54.078Z,57.90
2019-01-16T12:07:29.941Z,57.80
2019-01-16T12:10:20.098Z,57.90
2019-01-16T12:13:10.442Z,58.30
2019-01-16T12:15:50.154Z,57.90
2019-01-16T12:18:49.446Z,58.00
2019-01-16T12:21:45.525Z,59.10
2019-01-16T12:24:31.327Z,59.40
2019-01-16T12:27:27.498Z,60.00
2019-01-16T12:30:02.211Z,60.60
2019-01-16T12:33:07.594Z,60.90
2019-01-16T12:36:06.262Z,60.90
2019-01-16T12:38:59.610Z,59.60
2019-01-16T12:41:45.262Z,59.60
2019-01-16T12:44:32.730Z,59.40
2019-01-16T12:47:18.348Z,59.30
2019-01-16T12:50:03.951Z,59.50
2019-01-16T12:52:57.031Z,58.90
2019-01-16T12:55:42.782Z,57.80
2019-01-16T12:58:33.197Z,58.30
2019-01-16T13:01:10.640Z,58.00
2019-01-16T13:03:51.851Z,57.80
2019-01-16T13:06:50.944Z,57.50
2019-01-16T13:09:40.995Z,57.40
2019-01-16T13:12:41.254Z,57.00
2019-01-16T13:15:50.340Z,57.20
2019-01-16T13:18:52.526Z,56.90
2019-01-16T13:21:40.109Z,56.20
2019-01-16T13:24:33.137Z,56.80
2019-01-16T13:27:18.930Z,56.80
2019-01-16T13:30:04.357Z,57.00
2019-01-16T13:32:51.644Z,56.90
2019-01-16T13:35:42.364Z,57.60
2019-01-16T13:38:41.794Z,56.70
2019-01-16T13:41:29.260Z,58.20
2019-01-16T13:44:25.699Z,58.00
2019-01-16T13:47:13.173Z,58.00
2019-01-16T13:50:00.541Z,58.20
2019-01-16T13:52:50.689Z,58.40
2019-01-16T13:55:40.830Z,58.20
2019-01-16T13:58:28.113Z,57.80
2019-01-16T14:01:08.515Z,58.10
2019-01-16T14:03:59.112Z,58.80
2019-01-16T14:06:49.223Z,58.30
2019-01-16T14:09:36.728Z,58.60
2019-01-16T14:12:19.103Z,58.70
2019-01-16T14:15:23.268Z,58.70
2019-01-16T14:18:11.982Z,59.30
2019-01-16T14:20:50.101Z,59.20
2019-01-16T14:23:46.437Z,59.50
2019-01-16T14:26:32.229Z,59.10
2019-01-16T14:29:25.749Z,59.50
2019-01-16T14:32:11.753Z,59.70
2019-01-16T14:34:53.488Z,60.00
2019-01-16T14:37:43.586Z,60.10
2019-01-16T14:40:33.654Z,60.00
2019-01-16T14:43:38.837Z,59.90
2019-01-16T14:46:28.835Z,60.50
2019-01-16T14:49:05.837Z,60.90
2019-01-16T14:51:51.652Z,60.50
2019-01-16T14:54:45.586Z,60.70
2019-01-16T14:57:31.253Z,60.40
2019-01-16T15:00:36.658Z,61.00
2019-01-16T15:03:26.773Z,61.60
2019-01-16T15:06:13.142Z,60.60
2019-01-16T15:09:15.253Z,61.00
2019-01-16T15:11:58.841Z,60.80
2019-01-16T15:15:13.484Z,61.30
2019-01-16T15:17:57.459Z,61.00
2019-01-16T15:20:47.982Z,60.80
2019-01-16T15:23:35.309Z,60.70
2019-01-16T15:26:29.042Z,61.10
2019-01-16T15:29:28.266Z,61.50
2019-01-16T15:32:15.584Z,61.40
2019-01-16T15:35:15.008Z,61.10
2019-01-16T15:38:04.870Z,61.30
2019-01-16T15:41:01.209Z,61.80
2019-01-16T15:43:36.902Z,61.70
2019-01-16T15:46:24.379Z,62.20
2019-01-16T15:49:14.452Z,62.20
2019-01-16T15:51:57.901Z,62.30
2019-01-16T15:54:50.030Z,62.80
2019-01-16T15:57:31.468Z,62.50
2019-01-16T16:00:21.799Z,62.70
2019-01-16T16:03:09.111Z,63.00
2019-01-16T16:05:54.778Z,63.30
2019-01-16T16:08:47.553Z,63.30
2019-01-16T16:11:44.073Z,63.30
2019-01-16T16:14:37.423Z,63.40
2019-01-16T16:17:30.869Z,63.50
2019-01-16T16:20:27.349Z,63.50
2019-01-16T16:23:05.090Z,64.00
2019-01-16T16:25:50.954Z,64.20
2019-01-16T16:28:37.523Z,64.40
2019-01-16T16:31:36.727Z,64.80
2019-01-16T16:34:24.427Z,65.30
2019-01-16T16:37:21.086Z,65.80
2019-01-16T16:40:14.549Z,66.50
2019-01-16T16:43:03.769Z,66.90
2019-01-16T16:46:03.451Z,66.80
2019-01-16T16:49:05.674Z,67.20
2019-01-16T16:51:53.137Z,67.40
2019-01-16T16:54:52.565Z,67.40
2019-01-16T16:57:38.270Z,67.60
2019-01-16T17:00:33.203Z,68.10
2019-01-16T17:03:25.796Z,68.30
2019-01-16T17:06:31.025Z,68.70
2019-01-16T17:09:17.289Z,68.40
2019-01-16T17:12:19.526Z,68.80
2019-01-16T17:15:35.571Z,69.10
2019-01-16T17:18:31.732Z,69.40
2019-01-16T17:21:30.994Z,69.50
2019-01-16T17:24:06.686Z,70.40
2019-01-16T17:27:00.113Z,69.80
2019-01-16T17:29:38.188Z,69.90
2019-01-16T17:32:24.119Z,69.80
2019-01-16T17:35:08.702Z,70.10
2019-01-16T17:37:54.255Z,70.30
2019-01-16T17:40:44.639Z,70.40
2019-01-16T17:43:32.049Z,70.50
2019-01-16T17:46:22.334Z,70.70
2019-01-16T17:49:15.498Z,70.60
2019-01-16T17:52:07.911Z,70.60
2019-01-16T17:54:53.671Z,70.90
2019-01-16T17:57:47.112Z,71.20
2019-01-16T18:00:33.003Z,71.50
2019-01-16T18:03:18.561Z,71.60
2019-01-16T18:06:04.546Z,71.60
2019-01-16T18:08:49.850Z,71.80
2019-01-16T18:11:26.645Z,71.90
2019-01-16T18:14:20.636Z,71.80
2019-01-16T18:17:06.593Z,72.00
2019-01-16T18:19:59.638Z,72.20
2019-01-16T18:22:49.944Z,71.90
2019-01-16T18:25:37.374Z,72.20
2019-01-16T18:28:29.206Z,72.20
2019-01-16T18:31:15.055Z,72.70
2019-01-16T18:34:17.533Z,72.70
2019-01-16T18:37:00.444Z,73.10
2019-01-16T18:39:50.653Z,73.20
2019-01-16T18:42:40.709Z,73.00
2019-01-16T18:45:19.550Z,73.40
2019-01-16T18:48:03.146Z,73.30
2019-01-16T18:50:50.682Z,73.30
2019-01-16T18:53:41.073Z,73.30
2019-01-16T18:56:26.724Z,73.30
2019-01-16T18:59:32.021Z,73.40
2019-01-16T19:02:22.106Z,73.60
2019-01-16T19:05:09.637Z,73.50
2019-01-16T19:08:14.877Z,74.00
2019-01-16T19:10:54.738Z,74.10
2019-01-16T19:13:42.820Z,74.10
2019-01-16T19:16:35.184Z,75.00
2019-01-16T19:19:28.272Z,74.20
2019-01-16T19:22:13.622Z,74.50
2019-01-16T19:24:56.017Z,74.70
2019-01-16T19:27:41.893Z,75.00
2019-01-16T19:30:43.185Z,75.40
2019-01-16T19:33:25.324Z,75.40
2019-01-16T19:36:11.392Z,75.70
2019-01-16T19:39:11.777Z,76.00
2019-01-16T19:41:59.420Z,76.20
2019-01-16T19:44:46.777Z,76.40
2019-01-16T19:47:26.934Z,76.80
2019-01-16T19:50:12.757Z,76.90
2019-01-16T19:53:06.194Z,77.40
2019-01-16T19:56:08.447Z,77.50
2019-01-16T19:59:03.057Z,77.60
2019-01-16T20:01:53.240Z,77.90
2019-01-16T20:04:46.340Z,78.00
2019-01-16T20:07:51.936Z,78.00
2019-01-16T20:10:43.704Z,78.00
2019-01-16T20:13:31.000Z,78.40
2019-01-16T20:16:40.476Z,78.60
2019-01-16T20:19:27.666Z,78.70
2019-01-16T20:22:20.105Z,78.80
2019-01-16T20:25:04.644Z,79.00
2019-01-16T20:27:50.621Z,79.30
2019-01-16T20:30:52.900Z,79.30
2019-01-16T20:33:48.620Z,79.50
2019-01-16T20:36:35.929Z,79.70
2019-01-16T20:39:25.968Z,79.80
2019-01-16T20:42:13.300Z,80.10
2019-01-16T20:45:02.367Z,80.10
2019-01-16T20:47:49.893Z,80.20
2019-01-16T20:50:40.334Z,80.50
2019-01-16T20:53:22.765Z,80.60
2019-01-16T20:56:28.196Z,81.00
2019-01-16T20:59:22.142Z,81.10
2019-01-16T21:02:24.398Z,81.30
2019-01-16T21:05:10.488Z,81.60
2019-01-16T21:07:50.974Z,82.00
2019-01-16T21:10:37.080Z,82.30
2019-01-16T21:13:24.402Z,82.40
2019-01-16T21:16:31.903Z,82.30
2019-01-16T21:19:30.644Z,82.40
2019-01-16T21:22:20.895Z,82.50
2019-01-16T21:25:01.549Z,82.60
2019-01-16T21:27:59.561Z,82.80
2019-01-16T21:30:47.089Z,83.00
2019-01-16T21:33:40.559Z,83.40
2019-01-16T21:36:20.350Z,83.30
2019-01-16T21:39:06.050Z,83.50
2019-01-16T21:42:05.521Z,83.90
2019-01-16T21:44:53.044Z,83.80
2019-01-16T21:47:43.641Z,84.00
2019-01-16T21:50:28.752Z,83.90
2019-01-16T21:53:30.417Z,84.00
2019-01-16T21:56:12.741Z,84.20
2019-01-16T21:59:00.101Z,84.40
2019-01-16T22:01:59.370Z,84.70
2019-01-16T22:04:36.115Z,85.10
2019-01-16T22:07:32.716Z,84.80
2019-01-16T22:10:26.330Z,85.00
2019-01-16T22:13:24.602Z,85.20
2019-01-16T22:16:32.875Z,85.30
2019-01-16T22:19:19.822Z,85.50
2019-01-16T22:22:09.904Z,85.60
2019-01-16T22:24:55.531Z,86.10
2019-01-16T22:27:40.241Z,86.40
2019-01-16T22:30:23.808Z,86.80
2019-01-16T22:33:22.885Z,86.70
2019-01-16T22:36:22.031Z,86.80
2019-01-16T22:39:18.110Z,87.00
2019-01-16T22:42:14.074Z,87.80
2019-01-16T22:45:00.213Z,88.40
2019-01-16T22:47:46.235Z,89.90
2019-01-16T22:50:32.292Z,90.30
2019-01-16T22:53:43.168Z,90.70
2019-01-16T22:56:24.946Z,91.10
2019-01-16T22:59:24.067Z,91.50
2019-01-16T23:02:11.335Z,91.90
2019-01-16T23:04:57.002Z,91.70
2019-01-16T23:07:32.588Z,91.90
2019-01-16T23:10:23.012Z,92.20
2019-01-16T23:13:16.238Z,92.50
2019-01-16T23:15:54.573Z,92.80
2019-01-16T23:18:40.113Z,93.50
2019-01-16T23:21:39.622Z,93.90
2019-01-16T23:24:25.353Z,94.20
2019-01-16T23:27:18.451Z,94.60
2019-01-16T23:29:57.445Z,94.90
2019-01-16T23:32:40.621Z,95.40
2019-01-16T23:35:43.666Z,95.30
2019-01-16T23:38:29.381Z,95.50
2019-01-16T23:41:09.234Z,95.70
2019-01-16T23:43:56.477Z,96.20
2019-01-16T23:46:43.817Z,96.10
2019-01-16T23:49:31.204Z,96.40
2019-01-16T23:52:24.516Z,96.60
2019-01-16T23:55:14.541Z,96.90
2019-01-16T23:58:01.861Z,97.10
